createdAt,value
2023-05-10T00:01:14.947Z,8.19
2023-05-10T00:03:41.910Z,8.02
2023-05-10T00:06:08.592Z,8.06
2023-05-10T00:08:35.237Z,8.26
2023-05-10T00:11:01.893Z,8.21
2023-05-10T00:13:28.732Z,8.14
2023-05-10T00:15:55.489Z,8.28
2023-05-10T00:18:22.102Z,8.26
2023-05-10T00:20:49.813Z,8.37
2023-05-10T00:23:16.495Z,8.09
2023-05-10T00:25:43.184Z,8.02
2023-05-10T00:28:09.841Z,8.30
2023-05-10T00:30:36.534Z,7.92
2023-05-10T00:33:03.961Z,7.86
2023-05-10T00:35:30.739Z,7.89
2023-05-10T00:37:57.488Z,7.79
2023-05-10T00:40:24.176Z,7.68
2023-05-10T00:42:50.925Z,7.86
2023-05-10T00:45:17.562Z,7.95
2023-05-10T00:47:44.209Z,7.86
2023-05-10T00:50:11.053Z,7.84
2023-05-10T00:52:37.677Z,7.90
2023-05-10T00:55:05.117Z,8.02
2023-05-10T00:57:31.896Z,7.93
2023-05-10T00:59:58.850Z,7.86
2023-05-10T01:02:25.628Z,8.00
2023-05-10T01:04:53.005Z,7.91
2023-05-10T01:07:19.917Z,7.57
2023-05-10T01:09:46.592Z,7.61
2023-05-10T01:12:13.285Z,7.65
2023-05-10T01:14:40.019Z,7.84
2023-05-10T01:17:07.057Z,7.73
2023-05-10T01:19:35.976Z,7.82
2023-05-10T01:22:32.562Z,7.80
2023-05-10T01:25:05.065Z,7.43
2023-05-10T01:27:59.449Z,7.55
2023-05-10T01:30:34.902Z,7.46
2023-05-10T01:33:27.857Z,7.15
2023-05-10T01:36:09.951Z,6.95
2023-05-10T01:38:50.984Z,7.09
2023-05-10T01:41:27.716Z,6.79
2023-05-10T01:44:06.639Z,7.13
2023-05-10T01:46:38.489Z,6.70
2023-05-10T01:49:09.586Z,7.01
2023-05-10T01:51:41.772Z,6.30
2023-05-10T01:54:08.322Z,6.68
2023-05-10T01:56:34.994Z,6.72
2023-05-10T01:59:02.392Z,7.08
2023-05-10T02:01:29.216Z,7.21
2023-05-10T02:03:56.354Z,7.03
2023-05-10T02:06:23.073Z,6.72
2023-05-10T02:08:50.452Z,6.83
2023-05-10T02:11:17.149Z,6.93
2023-05-10T02:13:44.544Z,6.43
2023-05-10T02:16:11.166Z,6.66
2023-05-10T02:18:37.869Z,6.97
2023-05-10T02:21:04.559Z,6.93
2023-05-10T02:23:31.282Z,7.25
2023-05-10T02:25:58.019Z,6.16
2023-05-10T02:28:24.830Z,6.44
2023-05-10T02:30:52.055Z,6.86
2023-05-10T02:33:19.080Z,7.09
2023-05-10T02:35:45.846Z,7.22
2023-05-10T02:38:12.822Z,7.07
2023-05-10T02:40:39.462Z,6.72
2023-05-10T02:43:06.159Z,7.06
2023-05-10T02:45:32.859Z,6.54
2023-05-10T02:47:59.649Z,6.74
2023-05-10T02:50:27.853Z,7.00
2023-05-10T02:52:57.439Z,6.98
2023-05-10T02:55:26.661Z,6.81
2023-05-10T02:57:55.390Z,7.14
2023-05-10T03:00:22.081Z,7.19
2023-05-10T03:02:48.797Z,7.21
2023-05-10T03:05:15.559Z,7.20
2023-05-10T03:07:42.225Z,7.02
2023-05-10T03:10:09.098Z,7.17
2023-05-10T03:13:13.416Z,7.14
2023-05-10T03:15:55.893Z,6.96
2023-05-10T03:18:24.057Z,7.04
2023-05-10T03:20:56.591Z,6.90
2023-05-10T03:23:52.624Z,7.18
2023-05-10T03:26:27.651Z,7.34
2023-05-10T03:28:54.330Z,7.24
2023-05-10T03:31:21.091Z,7.18
2023-05-10T03:33:49.347Z,7.16
2023-05-10T03:36:15.984Z,6.93
2023-05-10T03:38:42.842Z,6.68
2023-05-10T03:41:09.500Z,6.84
2023-05-10T03:43:37.620Z,6.94
2023-05-10T03:46:04.738Z,7.05
2023-05-10T03:48:31.740Z,6.48
2023-05-10T03:50:58.414Z,6.49
2023-05-10T03:53:25.279Z,6.67
2023-05-10T03:55:52.038Z,6.71
2023-05-10T03:58:19.394Z,6.68
2023-05-10T04:00:46.525Z,6.70
2023-05-10T04:03:13.400Z,6.21
2023-05-10T04:05:40.375Z,6.40
2023-05-10T04:08:07.132Z,6.66
2023-05-10T04:10:33.804Z,6.83
2023-05-10T04:13:00.663Z,6.68
2023-05-10T04:15:27.314Z,7.09
2023-05-10T04:17:54.832Z,7.05
2023-05-10T04:20:21.498Z,7.06
2023-05-10T04:22:48.133Z,7.10
2023-05-10T04:25:14.902Z,6.85
2023-05-10T04:27:41.601Z,6.88
2023-05-10T04:30:08.708Z,7.18
2023-05-10T04:32:35.464Z,7.20
2023-05-10T04:35:04.571Z,7.14
2023-05-10T04:37:31.428Z,6.62
2023-05-10T04:39:58.078Z,6.47
2023-05-10T04:42:24.637Z,6.75
2023-05-10T04:44:53.115Z,6.87
2023-05-10T04:47:19.999Z,6.95
2023-05-10T04:49:46.679Z,6.89
2023-05-10T04:52:13.362Z,6.81
2023-05-10T04:54:40.280Z,6.51
2023-05-10T04:57:06.966Z,6.81
2023-05-10T04:59:33.635Z,6.47
2023-05-10T05:02:00.370Z,6.55
2023-05-10T05:04:27.031Z,6.69
2023-05-10T05:06:54.074Z,7.00
2023-05-10T05:09:20.977Z,7.11
2023-05-10T05:11:47.666Z,7.25
2023-05-10T05:14:14.276Z,7.49
2023-05-10T05:16:40.990Z,7.30
2023-05-10T05:19:07.670Z,7.03
2023-05-10T05:21:34.419Z,7.01
2023-05-10T05:24:01.776Z,7.01
2023-05-10T05:26:28.599Z,7.10
2023-05-10T05:28:55.706Z,7.00
2023-05-10T05:31:22.664Z,7.03
2023-05-10T05:33:49.302Z,6.98
2023-05-10T05:36:15.963Z,6.94
2023-05-10T05:38:43.027Z,7.15
2023-05-10T05:41:09.618Z,7.15
2023-05-10T05:43:38.203Z,6.90
2023-05-10T05:46:05.494Z,6.87
2023-05-10T05:48:32.319Z,6.86
2023-05-10T05:50:59.067Z,6.98
2023-05-10T05:53:25.860Z,6.99
2023-05-10T05:55:56.405Z,7.03
2023-05-10T05:58:23.557Z,7.05
2023-05-10T06:00:50.377Z,7.16
2023-05-10T06:03:17.344Z,6.91
2023-05-10T06:05:44.070Z,6.94
2023-05-10T06:08:10.850Z,7.06
2023-05-10T06:10:37.861Z,6.87
2023-05-10T06:13:04.619Z,7.09
2023-05-10T06:15:31.337Z,6.93
2023-05-10T06:17:58.043Z,6.88
2023-05-10T06:20:24.721Z,6.63
2023-05-10T06:22:51.391Z,6.60
2023-05-10T06:25:19.268Z,6.86
2023-05-10T06:27:49.809Z,6.88
2023-05-10T06:30:18.619Z,6.52
2023-05-10T06:32:46.242Z,6.59
2023-05-10T06:35:12.988Z,6.75
2023-05-10T06:37:39.885Z,6.76
2023-05-10T06:40:07.552Z,6.74
2023-05-10T06:42:34.237Z,6.79
2023-05-10T06:45:01.030Z,6.74
2023-05-10T06:47:27.779Z,6.76
2023-05-10T06:49:54.648Z,6.88
2023-05-10T06:52:21.239Z,6.67
2023-05-10T06:54:47.888Z,6.95
2023-05-10T06:57:27.566Z,7.11
2023-05-10T06:59:58.040Z,6.87
2023-05-10T07:02:24.671Z,6.68
2023-05-10T07:04:53.148Z,6.90
2023-05-10T07:07:20.106Z,7.00
2023-05-10T07:09:46.797Z,7.02
2023-05-10T07:12:15.392Z,7.01
2023-05-10T07:14:43.011Z,6.95
2023-05-10T07:17:09.986Z,6.97
2023-05-10T07:19:37.032Z,7.04
2023-05-10T07:22:03.852Z,6.95
2023-05-10T07:24:30.927Z,6.97
2023-05-10T07:26:57.626Z,6.87
2023-05-10T07:29:24.285Z,6.88
2023-05-10T07:31:51.186Z,6.99
2023-05-10T07:34:17.887Z,7.11
2023-05-10T07:36:44.687Z,7.23
2023-05-10T07:39:12.707Z,7.41
2023-05-10T07:41:43.088Z,7.27
2023-05-10T07:44:09.753Z,7.28
2023-05-10T07:46:36.485Z,7.02
2023-05-10T07:49:03.275Z,7.09
2023-05-10T07:51:29.992Z,7.10
2023-05-10T07:53:56.673Z,6.91
2023-05-10T07:56:28.119Z,7.00
2023-05-10T07:58:55.437Z,6.95
2023-05-10T08:01:22.239Z,7.06
2023-05-10T08:03:49.283Z,7.16
2023-05-10T08:06:16.548Z,7.16
2023-05-10T08:08:43.384Z,7.03
2023-05-10T08:11:10.189Z,7.37
2023-05-10T08:13:36.800Z,7.42
2023-05-10T08:16:03.540Z,7.47
2023-05-10T08:18:30.461Z,7.37
2023-05-10T08:20:57.154Z,7.28
2023-05-10T08:23:23.853Z,7.38
2023-05-10T08:25:50.575Z,7.39
2023-05-10T08:28:17.242Z,7.53
2023-05-10T08:30:43.951Z,7.38
2023-05-10T08:33:10.759Z,7.32
2023-05-10T08:35:37.527Z,7.39
2023-05-10T08:38:04.390Z,7.12
2023-05-10T08:40:31.086Z,7.27
2023-05-10T08:43:08.280Z,7.25
2023-05-10T08:45:38.625Z,7.21
2023-05-10T08:48:06.730Z,7.27
2023-05-10T08:50:33.477Z,7.07
2023-05-10T08:53:02.168Z,7.27
2023-05-10T08:55:28.922Z,7.36
2023-05-10T08:57:55.876Z,7.36
2023-05-10T09:00:24.080Z,7.21
2023-05-10T09:02:51.298Z,7.23
2023-05-10T09:05:18.937Z,7.34
2023-05-10T09:07:45.966Z,7.38
2023-05-10T09:10:12.604Z,7.45
2023-05-10T09:12:39.383Z,7.38
2023-05-10T09:15:07.171Z,7.44
2023-05-10T09:17:33.977Z,7.57
2023-05-10T09:20:01.325Z,7.61
2023-05-10T09:22:28.296Z,7.54
2023-05-10T09:25:14.594Z,7.60
2023-05-10T09:27:42.261Z,7.61
2023-05-10T09:30:09.562Z,7.60
2023-05-10T09:32:48.149Z,7.73
2023-05-10T09:35:22.657Z,7.84
2023-05-10T09:37:50.936Z,7.70
2023-05-10T09:40:19.057Z,7.59
2023-05-10T09:42:55.724Z,7.68
2023-05-10T09:45:23.439Z,7.99
2023-05-10T09:47:50.186Z,8.07
2023-05-10T09:50:17.293Z,7.94
2023-05-10T09:52:53.780Z,7.91
2023-05-10T09:55:24.378Z,8.05
2023-05-10T09:57:59.726Z,7.97
2023-05-10T10:00:27.198Z,7.95
2023-05-10T10:03:00.444Z,7.90
2023-05-10T10:05:34.267Z,7.84
2023-05-10T10:08:02.761Z,7.96
2023-05-10T10:10:29.411Z,7.90
2023-05-10T10:12:56.447Z,8.00
2023-05-10T10:15:23.783Z,7.99
2023-05-10T10:17:51.205Z,7.78
2023-05-10T10:20:18.851Z,7.94
2023-05-10T10:22:46.713Z,8.16
2023-05-10T10:25:15.149Z,8.00
2023-05-10T10:28:14.903Z,7.95
2023-05-10T10:30:49.323Z,7.88
2023-05-10T10:33:37.931Z,7.90
2023-05-10T10:36:05.030Z,7.77
2023-05-10T10:38:49.333Z,7.73
2023-05-10T10:41:51.383Z,7.83
2023-05-10T10:44:26.981Z,7.94
2023-05-10T10:47:12.600Z,8.03
2023-05-10T10:49:42.644Z,8.02
2023-05-10T10:52:40.788Z,8.12
2023-05-10T10:55:09.437Z,8.09
2023-05-10T10:57:45.292Z,7.92
2023-05-10T11:00:34.172Z,7.96
2023-05-10T11:03:05.423Z,8.04
2023-05-10T11:05:47.807Z,8.02
2023-05-10T11:08:14.379Z,7.91
2023-05-10T11:10:49.711Z,7.97
2023-05-10T11:13:16.411Z,8.01
2023-05-10T11:15:49.445Z,7.87
2023-05-10T11:18:26.554Z,8.04
2023-05-10T11:21:08.314Z,8.20
2023-05-10T11:23:40.985Z,8.41
2023-05-10T11:26:10.617Z,8.40
2023-05-10T11:28:47.538Z,8.30
2023-05-10T11:31:17.878Z,8.17
2023-05-10T11:33:49.056Z,8.34
2023-05-10T11:36:17.138Z,8.47
2023-05-10T11:38:43.811Z,8.54
2023-05-10T11:41:13.767Z,8.38
2023-05-10T11:43:40.801Z,8.22
2023-05-10T11:46:07.787Z,8.11
2023-05-10T11:48:34.526Z,8.28
2023-05-10T11:51:03.014Z,8.48
2023-05-10T11:53:33.353Z,8.42
2023-05-10T11:56:10.239Z,8.44
2023-05-10T11:58:37.850Z,8.48
2023-05-10T12:01:05.460Z,8.39
2023-05-10T12:03:32.351Z,8.53
2023-05-10T12:05:59.448Z,8.47
2023-05-10T12:08:27.314Z,8.56
2023-05-10T12:11:11.485Z,8.69
2023-05-10T12:13:41.936Z,8.55
2023-05-10T12:16:19.095Z,8.57
2023-05-10T12:18:46.417Z,8.74
2023-05-10T12:21:13.302Z,8.68
2023-05-10T12:23:40.416Z,8.76
2023-05-10T12:26:07.264Z,8.88
2023-05-10T12:28:34.082Z,9.06
2023-05-10T12:31:00.901Z,8.98
2023-05-10T12:33:27.601Z,8.91
2023-05-10T12:35:55.326Z,8.99
2023-05-10T12:38:39.174Z,9.05
2023-05-10T12:41:11.674Z,9.12
2023-05-10T12:43:38.879Z,9.14
2023-05-10T12:46:15.746Z,9.24
2023-05-10T12:48:43.491Z,9.19
2023-05-10T12:51:14.201Z,9.33
2023-05-10T12:53:42.723Z,9.27
2023-05-10T12:56:11.324Z,9.36
2023-05-10T12:58:38.030Z,9.27
2023-05-10T13:01:05.857Z,9.39
2023-05-10T13:03:32.658Z,9.27
2023-05-10T13:05:59.420Z,9.19
2023-05-10T13:08:26.257Z,9.23
2023-05-10T13:10:52.899Z,9.27
2023-05-10T13:13:19.567Z,9.23
2023-05-10T13:15:46.254Z,9.24
2023-05-10T13:18:12.934Z,9.23
2023-05-10T13:20:39.809Z,9.08
2023-05-10T13:23:06.518Z,9.22
2023-05-10T13:25:33.394Z,9.24
2023-05-10T13:28:00.150Z,9.27
2023-05-10T13:30:26.839Z,9.34
2023-05-10T13:32:53.620Z,9.36
2023-05-10T13:35:20.403Z,9.24
2023-05-10T13:37:47.101Z,9.31
2023-05-10T13:40:14.704Z,9.42
2023-05-10T13:42:41.984Z,9.65
2023-05-10T13:45:08.979Z,9.54
2023-05-10T13:47:35.734Z,9.59
2023-05-10T13:50:02.966Z,9.73
2023-05-10T13:52:29.598Z,9.76
2023-05-10T13:54:56.381Z,9.61
2023-05-10T13:57:24.068Z,9.94
2023-05-10T13:59:51.302Z,9.98
2023-05-10T14:02:18.095Z,9.97
2023-05-10T14:04:44.848Z,9.79
2023-05-10T14:07:11.543Z,9.83
2023-05-10T14:09:38.270Z,9.77
2023-05-10T14:12:04.976Z,9.78
2023-05-10T14:14:31.741Z,9.59
2023-05-10T14:16:58.513Z,9.65
2023-05-10T14:19:25.149Z,9.60
2023-05-10T14:21:53.036Z,9.68
2023-05-10T14:24:19.601Z,9.82
2023-05-10T14:26:46.244Z,9.81
2023-05-10T14:29:12.965Z,9.71
2023-05-10T14:31:39.814Z,9.54
2023-05-10T14:34:06.807Z,9.53
2023-05-10T14:36:33.639Z,9.55
2023-05-10T14:39:00.371Z,9.68
2023-05-10T14:41:27.254Z,9.68
2023-05-10T14:43:54.260Z,9.79
2023-05-10T14:46:21.158Z,9.71
2023-05-10T14:48:47.871Z,9.66
2023-05-10T14:51:14.846Z,9.93
2023-05-10T14:53:41.711Z,9.79
2023-05-10T14:56:08.564Z,9.65
2023-05-10T14:58:35.232Z,9.75
2023-05-10T15:01:02.229Z,9.68
2023-05-10T15:03:30.014Z,9.58
2023-05-10T15:05:58.764Z,9.72
2023-05-10T15:08:28.828Z,9.78
2023-05-10T15:10:56.963Z,9.87
2023-05-10T15:13:23.644Z,9.65
2023-05-10T15:15:50.660Z,9.62
2023-05-10T15:18:17.903Z,9.76
2023-05-10T15:20:44.722Z,9.70
2023-05-10T15:23:11.391Z,9.58
2023-05-10T15:25:38.526Z,9.54
2023-05-10T15:28:05.466Z,9.45
2023-05-10T15:30:32.148Z,9.60
2023-05-10T15:32:58.918Z,9.76
2023-05-10T15:35:27.018Z,9.66
2023-05-10T15:37:53.672Z,9.50
2023-05-10T15:40:20.466Z,9.48
2023-05-10T15:42:47.172Z,9.36
2023-05-10T15:45:13.920Z,9.28
2023-05-10T15:47:40.723Z,9.38
2023-05-10T15:50:08.412Z,9.04
2023-05-10T15:52:36.141Z,9.21
2023-05-10T15:55:03.630Z,9.03
2023-05-10T15:57:30.425Z,9.25
2023-05-10T15:59:57.155Z,9.17
2023-05-10T16:02:23.999Z,9.34
2023-05-10T16:04:51.663Z,9.38
2023-05-10T16:07:18.457Z,9.23
2023-05-10T16:09:45.149Z,9.30
2023-05-10T16:12:11.743Z,9.18
2023-05-10T16:14:38.404Z,9.07
2023-05-10T16:17:05.217Z,9.21
2023-05-10T16:19:32.231Z,9.18
2023-05-10T16:21:58.975Z,9.26
2023-05-10T16:24:26.376Z,9.26
2023-05-10T16:26:53.131Z,9.23
2023-05-10T16:29:19.819Z,9.17
2023-05-10T16:31:46.994Z,9.12
2023-05-10T16:34:13.660Z,9.08
2023-05-10T16:36:40.502Z,9.20
2023-05-10T16:39:07.424Z,9.23
2023-05-10T16:41:34.512Z,9.01
2023-05-10T16:44:01.793Z,9.01
2023-05-10T16:46:28.477Z,9.08
2023-05-10T16:48:55.184Z,9.10
2023-05-10T16:51:21.835Z,9.25
2023-05-10T16:53:48.421Z,9.11
2023-05-10T16:56:15.081Z,8.92
2023-05-10T16:58:41.844Z,8.82
2023-05-10T17:01:08.564Z,8.88
2023-05-10T17:03:35.817Z,9.02
2023-05-10T17:06:02.625Z,9.00
2023-05-10T17:08:29.217Z,9.04
2023-05-10T17:10:56.395Z,8.88
2023-05-10T17:13:23.303Z,8.89
2023-05-10T17:15:50.093Z,8.85
2023-05-10T17:18:17.466Z,8.81
2023-05-10T17:20:45.165Z,8.89
2023-05-10T17:23:11.922Z,8.93
2023-05-10T17:25:38.759Z,8.78
2023-05-10T17:28:05.550Z,8.28
2023-05-10T17:30:32.847Z,8.41
2023-05-10T17:33:00.233Z,8.50
2023-05-10T17:35:27.021Z,8.45
2023-05-10T17:37:53.876Z,8.50
2023-05-10T17:40:20.561Z,8.74
2023-05-10T17:42:47.252Z,8.76
2023-05-10T17:45:13.941Z,8.88
2023-05-10T17:47:40.691Z,8.86
2023-05-10T17:50:07.596Z,8.54
2023-05-10T17:52:34.299Z,8.52
2023-05-10T17:55:01.017Z,8.53
2023-05-10T17:57:28.130Z,8.12
2023-05-10T17:59:54.863Z,8.31
2023-05-10T18:02:21.549Z,7.84
2023-05-10T18:04:49.436Z,8.23
2023-05-10T18:07:16.551Z,8.16
2023-05-10T18:09:43.237Z,8.07
2023-05-10T18:12:09.821Z,8.15
2023-05-10T18:14:41.244Z,7.95
2023-05-10T18:17:09.272Z,8.01
2023-05-10T18:19:36.069Z,7.77
2023-05-10T18:22:02.859Z,7.88
2023-05-10T18:26:59.156Z,8.37
2023-05-10T18:29:26.088Z,8.54
2023-05-10T18:31:52.784Z,8.71
2023-05-10T18:34:19.399Z,8.64
2023-05-10T18:36:46.361Z,8.50
2023-05-10T18:39:13.351Z,8.51
2023-05-10T18:41:40.090Z,8.84
2023-05-10T18:44:06.719Z,8.76
2023-05-10T18:46:33.792Z,8.36
2023-05-10T18:49:00.513Z,8.26
2023-05-10T18:51:29.573Z,8.50
2023-05-10T18:53:56.354Z,8.48
2023-05-10T18:56:23.768Z,8.38
2023-05-10T18:58:50.368Z,8.19
2023-05-10T19:01:17.189Z,7.93
2023-05-10T19:03:43.824Z,8.23
2023-05-10T19:06:10.948Z,8.26
2023-05-10T19:08:37.707Z,8.04
2023-05-10T19:11:04.366Z,8.09
2023-05-10T19:13:31.157Z,8.15
2023-05-10T19:16:10.927Z,7.88
2023-05-10T19:18:39.398Z,7.96
2023-05-10T19:21:10.439Z,8.03
2023-05-10T19:23:39.663Z,8.19
2023-05-10T19:26:06.395Z,8.43
2023-05-10T19:28:34.215Z,8.18
2023-05-10T19:31:01.828Z,8.27
2023-05-10T19:33:28.745Z,8.34
2023-05-10T19:35:55.675Z,8.22
2023-05-10T19:38:22.962Z,8.31
2023-05-10T19:40:59.557Z,8.50
2023-05-10T19:43:26.810Z,8.44
2023-05-10T19:45:53.995Z,8.60
2023-05-10T19:48:20.735Z,8.82
2023-05-10T19:50:47.327Z,8.77
2023-05-10T19:53:14.080Z,8.14
2023-05-10T19:55:40.789Z,8.04
2023-05-10T19:58:07.381Z,8.32
2023-05-10T20:00:34.207Z,8.50
2023-05-10T20:03:01.319Z,8.58
2023-05-10T20:05:28.818Z,8.40
2023-05-10T20:07:55.501Z,8.32
2023-05-10T20:10:22.113Z,8.39
2023-05-10T20:12:52.891Z,8.42
2023-05-10T20:15:21.067Z,8.33
2023-05-10T20:17:48.090Z,8.63
2023-05-10T20:20:16.630Z,8.62
2023-05-10T20:22:47.172Z,8.42
2023-05-10T20:25:14.339Z,8.53
2023-05-10T20:27:41.000Z,7.84
2023-05-10T20:30:08.071Z,7.89
2023-05-10T20:32:34.813Z,8.10
2023-05-10T20:35:01.633Z,8.31
2023-05-10T20:37:28.730Z,8.32
2023-05-10T20:39:55.600Z,8.36
2023-05-10T20:42:22.401Z,8.34
2023-05-10T20:44:49.889Z,8.41
2023-05-10T20:47:16.708Z,8.23
2023-05-10T20:49:43.700Z,8.10
2023-05-10T20:52:10.403Z,8.32
2023-05-10T20:54:37.113Z,8.46
2023-05-10T20:57:03.902Z,8.58
2023-05-10T20:59:30.641Z,8.03
2023-05-10T21:01:57.701Z,7.82
2023-05-10T21:04:25.583Z,8.06
2023-05-10T21:06:53.074Z,8.24
2023-05-10T21:09:19.811Z,8.39
2023-05-10T21:11:46.641Z,8.43
2023-05-10T21:14:13.251Z,8.31
2023-05-10T21:16:40.162Z,8.39
2023-05-10T21:19:09.662Z,8.53
2023-05-10T21:21:36.423Z,8.63
2023-05-10T21:24:03.309Z,8.52
2023-05-10T21:26:29.952Z,8.47
2023-05-10T21:28:56.628Z,8.36
2023-05-10T21:31:23.443Z,8.42
2023-05-10T21:33:50.263Z,7.95
2023-05-10T21:36:16.893Z,8.18
2023-05-10T21:38:44.553Z,8.13
2023-05-10T21:41:11.250Z,8.43
2023-05-10T21:43:38.049Z,8.47
2023-05-10T21:46:04.814Z,8.06
2023-05-10T21:48:31.486Z,8.41
2023-05-10T21:50:58.848Z,8.63
2023-05-10T21:53:25.485Z,8.57
2023-05-10T21:55:52.314Z,8.59
2023-05-10T21:58:19.012Z,8.60
2023-05-10T22:00:45.620Z,8.40
2023-05-10T22:03:12.415Z,8.60
2023-05-10T22:05:39.286Z,8.42
2023-05-10T22:08:06.582Z,8.19
2023-05-10T22:10:33.387Z,8.42
2023-05-10T22:13:00.364Z,8.44
2023-05-10T22:15:27.215Z,8.54
2023-05-10T22:17:54.020Z,8.20
2023-05-10T22:20:21.209Z,8.24
2023-05-10T22:22:47.930Z,8.47
2023-05-10T22:25:14.741Z,8.27
2023-05-10T22:27:41.490Z,8.34
2023-05-10T22:30:08.697Z,8.40
2023-05-10T22:32:35.460Z,8.43
2023-05-10T22:35:02.378Z,8.35
2023-05-10T22:37:29.078Z,8.35
2023-05-10T22:39:55.755Z,8.38
2023-05-10T22:42:22.367Z,8.53
2023-05-10T22:44:49.012Z,8.55
2023-05-10T22:47:16.487Z,8.39
2023-05-10T22:49:43.140Z,8.27
2023-05-10T22:52:10.838Z,8.08
2023-05-10T22:54:37.472Z,8.20
2023-05-10T22:57:04.153Z,8.24
2023-05-10T22:59:30.967Z,8.25
2023-05-10T23:01:57.667Z,8.24
2023-05-10T23:04:24.298Z,8.24
2023-05-10T23:06:50.994Z,8.16
2023-05-10T23:09:17.582Z,8.22
2023-05-10T23:11:44.278Z,8.13
2023-05-10T23:14:11.047Z,8.05
2023-05-10T23:16:37.772Z,8.11
2023-05-10T23:19:04.595Z,8.13
2023-05-10T23:21:32.251Z,8.19
2023-05-10T23:23:59.395Z,8.15
2023-05-10T23:26:26.015Z,8.23
2023-05-10T23:28:52.651Z,8.14
2023-05-10T23:31:19.378Z,8.01
2023-05-10T23:33:46.159Z,7.96
2023-05-10T23:36:12.772Z,7.87
2023-05-10T23:38:39.654Z,7.88
2023-05-10T23:41:06.280Z,7.72
2023-05-10T23:43:32.921Z,7.77
2023-05-10T23:45:59.732Z,7.72
2023-05-10T23:48:26.411Z,7.75
2023-05-10T23:50:53.105Z,7.49
2023-05-10T23:53:19.859Z,7.60
2023-05-10T23:55:46.831Z,7.79
2023-05-10T23:58:13.469Z,7.66
